createdAt,value
2023-03-05T00:00:05.504Z,2.34
2023-03-05T00:03:01.539Z,2.39
2023-03-05T00:05:30.020Z,2.46
2023-03-05T00:07:58.416Z,2.56
2023-03-05T00:10:26.892Z,2.64
2023-03-05T00:12:55.279Z,2.68
2023-03-05T00:15:23.608Z,2.70
2023-03-05T00:17:51.850Z,2.67
2023-03-05T00:20:20.334Z,2.64
2023-03-05T00:22:48.611Z,2.60
2023-03-05T00:25:16.991Z,2.59
2023-03-05T00:27:45.389Z,2.64
2023-03-05T00:30:14.814Z,2.73
2023-03-05T00:32:43.168Z,2.82
2023-03-05T00:35:12.888Z,2.93
2023-03-05T00:37:41.481Z,3.03
2023-03-05T00:40:10.993Z,3.09
2023-03-05T00:42:39.367Z,3.14
2023-03-05T00:45:09.876Z,3.16
2023-03-05T00:47:39.527Z,3.10
2023-03-05T00:50:09.465Z,3.07
2023-03-05T00:52:37.815Z,2.99
2023-03-05T00:55:06.596Z,2.91
2023-03-05T00:57:35.100Z,2.81
2023-03-05T01:00:05.037Z,2.77
2023-03-05T01:02:34.806Z,2.75
2023-03-05T01:05:03.862Z,2.80
2023-03-05T01:07:32.308Z,2.86
2023-03-05T01:10:00.793Z,2.91
2023-03-05T01:12:29.071Z,2.91
2023-03-05T01:14:57.478Z,2.90
2023-03-05T01:17:25.735Z,2.91
2023-03-05T01:19:54.215Z,2.91
2023-03-05T01:22:22.502Z,2.92
2023-03-05T01:24:50.680Z,2.92
2023-03-05T01:27:22.538Z,2.82
2023-03-05T01:29:51.331Z,2.71
2023-03-05T01:32:19.520Z,2.62
2023-03-05T01:34:47.898Z,2.53
2023-03-05T01:37:16.282Z,2.45
2023-03-05T01:39:45.389Z,2.41
2023-03-05T01:42:13.873Z,2.39
2023-03-05T01:45:12.702Z,2.36
2023-03-05T01:47:41.339Z,2.32
2023-03-05T01:50:14.440Z,2.30
2023-03-05T01:52:49.574Z,2.28
2023-03-05T01:55:22.860Z,2.23
2023-03-05T01:57:58.089Z,2.21
2023-03-05T02:00:46.175Z,2.22
2023-03-05T02:03:14.833Z,2.19
2023-03-05T02:05:44.684Z,2.17
2023-03-05T02:08:16.308Z,2.17
2023-03-05T02:10:56.622Z,2.16
2023-03-05T02:13:31.815Z,2.13
2023-03-05T02:16:01.771Z,2.10
2023-03-05T02:18:30.930Z,2.04
2023-03-05T02:21:04.939Z,1.97
2023-03-05T02:23:36.591Z,1.91
2023-03-05T02:26:10.611Z,1.85
2023-03-05T02:28:43.415Z,1.80
2023-03-05T02:31:24.304Z,1.77
2023-03-05T02:33:54.183Z,1.73
2023-03-05T02:36:23.695Z,1.69
2023-03-05T02:38:53.800Z,1.65
2023-03-05T02:41:22.322Z,1.64
2023-03-05T02:43:51.568Z,1.64
2023-03-05T02:46:20.204Z,1.63
2023-03-05T02:48:50.225Z,1.62
2023-03-05T02:51:19.703Z,1.59
2023-03-05T02:53:48.830Z,1.55
2023-03-05T02:56:18.135Z,1.52
2023-03-05T02:58:46.520Z,1.49
2023-03-05T03:01:14.772Z,1.43
2023-03-05T03:03:43.092Z,1.39
2023-03-05T03:06:11.686Z,1.38
2023-03-05T03:08:39.874Z,1.39
2023-03-05T03:11:11.253Z,1.40
2023-03-05T03:13:40.363Z,1.40
2023-03-05T03:16:11.935Z,1.38
2023-03-05T03:18:40.248Z,1.38
2023-03-05T03:21:08.636Z,1.39
2023-03-05T03:23:37.018Z,1.42
2023-03-05T03:26:06.018Z,1.44
2023-03-05T03:28:34.710Z,1.43
2023-03-05T03:31:03.158Z,1.43
2023-03-05T03:33:32.011Z,1.41
2023-03-05T03:36:00.628Z,1.39
2023-03-05T03:38:28.974Z,1.37
2023-03-05T03:40:57.453Z,1.36
2023-03-05T03:43:25.834Z,1.36
2023-03-05T03:45:54.698Z,1.38
2023-03-05T03:48:23.943Z,1.37
2023-03-05T03:50:52.423Z,1.35
2023-03-05T03:53:20.911Z,1.34
2023-03-05T03:55:49.608Z,1.34
2023-03-05T03:58:18.192Z,1.32
2023-03-05T04:00:46.684Z,1.29
2023-03-05T04:03:14.872Z,1.29
2023-03-05T04:05:43.354Z,1.29
2023-03-05T04:08:12.863Z,1.25
2023-03-05T04:10:41.443Z,1.21
2023-03-05T04:13:09.727Z,1.17
2023-03-05T04:15:38.348Z,1.11
2023-03-05T04:18:06.906Z,1.08
2023-03-05T04:20:35.490Z,1.10
2023-03-05T04:23:03.887Z,1.13
2023-03-05T04:25:36.461Z,1.12
2023-03-05T04:28:05.574Z,1.15
2023-03-05T04:30:34.151Z,1.17
2023-03-05T04:33:02.839Z,1.21
2023-03-05T04:35:31.760Z,1.24
2023-03-05T04:38:00.215Z,1.27
2023-03-05T04:40:28.819Z,1.32
2023-03-05T04:42:57.197Z,1.36
2023-03-05T04:45:25.680Z,1.42
2023-03-05T04:47:54.479Z,1.46
2023-03-05T04:50:23.063Z,1.48
2023-03-05T04:52:51.547Z,1.49
2023-03-05T04:55:20.601Z,1.49
2023-03-05T04:57:49.042Z,1.47
2023-03-05T05:00:18.557Z,1.44
2023-03-05T05:02:48.955Z,1.41
2023-03-05T05:05:19.918Z,1.40
2023-03-05T05:07:48.399Z,1.38
2023-03-05T05:10:17.613Z,1.40
2023-03-05T05:12:46.091Z,1.42
2023-03-05T05:15:14.790Z,1.41
2023-03-05T05:17:43.369Z,1.42
2023-03-05T05:20:14.377Z,1.42
2023-03-05T05:22:43.321Z,1.41
2023-03-05T05:25:12.520Z,1.44
2023-03-05T05:27:41.388Z,1.48
2023-03-05T05:30:10.851Z,1.52
2023-03-05T05:32:39.278Z,1.55
2023-03-05T05:35:08.252Z,1.58
2023-03-05T05:37:37.060Z,1.61
2023-03-05T05:40:06.785Z,1.64
2023-03-05T05:42:37.248Z,1.65
2023-03-05T05:45:06.358Z,1.69
2023-03-05T05:47:34.861Z,1.72
2023-03-05T05:50:21.261Z,1.74
2023-03-05T05:53:31.686Z,1.76
2023-03-05T05:56:40.563Z,1.81
2023-03-05T05:59:51.333Z,1.89
2023-03-05T06:02:19.772Z,1.95
2023-03-05T06:07:55.079Z,2.05
2023-03-05T06:10:23.552Z,2.09
2023-03-05T06:13:37.914Z,2.14
2023-03-05T06:16:26.069Z,2.18
2023-03-05T06:18:54.411Z,2.26
2023-03-05T06:21:23.976Z,2.30
2023-03-05T06:23:52.866Z,2.35
2023-03-05T06:26:50.701Z,2.38
2023-03-05T06:29:52.705Z,2.44
2023-03-05T06:32:21.356Z,2.51
2023-03-05T06:34:50.412Z,2.58
2023-03-05T06:37:19.315Z,2.66
2023-03-05T06:39:48.304Z,2.73
2023-03-05T06:42:19.771Z,2.80
2023-03-05T06:44:48.439Z,2.89
2023-03-05T06:47:17.468Z,2.94
2023-03-05T06:49:45.728Z,3.01
2023-03-05T06:52:14.159Z,3.06
2023-03-05T06:54:42.604Z,3.14
2023-03-05T06:57:11.297Z,3.20
2023-03-05T06:59:39.678Z,3.26
2023-03-05T07:02:11.443Z,3.34
2023-03-05T07:04:40.639Z,3.40
2023-03-05T07:07:08.931Z,3.45
2023-03-05T07:09:43.146Z,3.51
2023-03-05T07:12:12.302Z,3.60
2023-03-05T07:14:40.828Z,3.70
2023-03-05T07:17:09.016Z,3.82
2023-03-05T07:19:38.421Z,3.91
2023-03-05T07:22:08.137Z,4.00
2023-03-05T07:24:36.828Z,4.09
2023-03-05T07:27:05.849Z,4.16
2023-03-05T07:29:34.207Z,4.23
2023-03-05T07:32:03.145Z,4.28
2023-03-05T07:34:31.603Z,4.34
2023-03-05T07:36:59.870Z,4.40
2023-03-05T07:39:28.362Z,4.48
2023-03-05T07:41:56.956Z,4.54
2023-03-05T07:44:29.025Z,4.59
2023-03-05T07:46:57.503Z,4.63
2023-03-05T07:49:26.200Z,4.66
2023-03-05T07:51:54.476Z,4.59
2023-03-05T07:54:23.276Z,4.50
2023-03-05T07:56:51.987Z,4.44
2023-03-05T07:59:20.961Z,4.45
2023-03-05T08:01:49.448Z,4.49
2023-03-05T08:04:17.759Z,4.54
2023-03-05T08:06:47.451Z,4.58
2023-03-05T08:09:17.123Z,4.63
2023-03-05T08:11:48.924Z,4.65
2023-03-05T08:14:19.469Z,4.68
2023-03-05T08:16:52.447Z,4.67
2023-03-05T08:19:21.442Z,4.65
2023-03-05T08:21:50.140Z,4.60
2023-03-05T08:24:18.420Z,4.58
2023-03-05T08:26:46.699Z,4.61
2023-03-05T08:29:15.185Z,4.60
2023-03-05T08:31:46.708Z,4.60
2023-03-05T08:34:15.345Z,4.61
2023-03-05T08:36:43.724Z,4.61
2023-03-05T08:39:12.107Z,4.64
2023-03-05T08:41:40.891Z,4.65
2023-03-05T08:44:09.730Z,4.63
2023-03-05T08:46:40.651Z,4.63
2023-03-05T08:49:11.128Z,4.60
2023-03-05T08:51:39.444Z,4.57
2023-03-05T08:54:08.649Z,4.54
2023-03-05T08:56:37.368Z,4.57
2023-03-05T08:59:06.737Z,4.64
2023-03-05T09:01:35.083Z,4.70
2023-03-05T09:04:04.220Z,4.74
2023-03-05T09:06:34.558Z,4.72
2023-03-05T09:09:03.049Z,4.70
2023-03-05T09:11:31.332Z,4.68
2023-03-05T09:13:59.632Z,4.65
2023-03-05T09:16:28.351Z,4.68
2023-03-05T09:18:56.994Z,4.73
2023-03-05T09:21:26.085Z,4.72
2023-03-05T09:23:59.736Z,4.77
2023-03-05T09:26:28.185Z,4.85
2023-03-05T09:28:57.089Z,4.89
2023-03-05T09:31:25.610Z,4.93
2023-03-05T09:33:53.872Z,4.94
2023-03-05T09:36:28.782Z,4.94
2023-03-05T09:38:58.739Z,4.97
2023-03-05T09:41:38.039Z,5.01
2023-03-05T09:44:12.259Z,5.03
2023-03-05T09:47:25.461Z,5.05
2023-03-05T09:50:38.742Z,5.04
2023-03-05T09:53:26.288Z,5.05
2023-03-05T09:56:11.256Z,5.05
2023-03-05T09:58:41.384Z,5.03
2023-03-05T10:01:15.504Z,4.98
2023-03-05T10:04:06.068Z,4.99
2023-03-05T10:06:58.832Z,5.02
2023-03-05T10:09:50.854Z,5.06
2023-03-05T10:12:25.469Z,5.06
2023-03-05T10:14:54.967Z,5.01
2023-03-05T10:17:23.268Z,4.97
2023-03-05T10:20:07.513Z,4.99
2023-03-05T10:22:54.114Z,5.04
2023-03-05T10:25:52.391Z,5.09
2023-03-05T10:28:46.022Z,5.08
2023-03-05T10:31:38.560Z,5.05
2023-03-05T10:34:28.152Z,4.99
2023-03-05T10:37:19.039Z,4.91
2023-03-05T10:40:15.458Z,4.81
2023-03-05T10:42:53.577Z,4.77
2023-03-05T10:45:29.535Z,4.76
2023-03-05T10:48:21.859Z,4.71
2023-03-05T10:51:03.356Z,4.68
2023-03-05T10:53:59.478Z,4.75
2023-03-05T10:56:31.945Z,4.88
2023-03-05T10:59:00.735Z,4.98
2023-03-05T11:01:31.909Z,5.04
2023-03-05T11:04:10.801Z,5.10
2023-03-05T11:06:47.477Z,5.13
2023-03-05T11:09:32.942Z,5.19
2023-03-05T11:12:07.060Z,5.11
2023-03-05T11:14:38.956Z,4.99
2023-03-05T11:17:24.298Z,4.94
2023-03-05T11:19:52.534Z,4.94
2023-03-05T11:22:25.166Z,5.02
2023-03-05T11:25:06.164Z,5.07
2023-03-05T11:27:39.831Z,5.12
2023-03-05T11:30:22.035Z,5.15
2023-03-05T11:32:50.518Z,5.20
2023-03-05T11:35:32.881Z,5.24
2023-03-05T11:38:06.729Z,5.28
2023-03-05T11:40:36.061Z,5.29
2023-03-05T11:43:05.483Z,5.36
2023-03-05T11:45:37.000Z,5.45
2023-03-05T11:48:28.783Z,5.51
2023-03-05T11:51:01.831Z,5.53
2023-03-05T11:53:35.698Z,5.61
2023-03-05T11:56:21.310Z,5.78
2023-03-05T11:59:27.962Z,5.89
2023-03-05T12:01:58.295Z,5.94
2023-03-05T12:04:26.676Z,5.92
2023-03-05T12:07:00.680Z,5.93
2023-03-05T12:09:43.143Z,5.89
2023-03-05T12:12:38.709Z,5.85
2023-03-05T12:15:18.962Z,5.83
2023-03-05T12:18:07.703Z,5.80
2023-03-05T12:20:45.126Z,5.88
2023-03-05T12:23:20.233Z,5.85
2023-03-05T12:25:57.932Z,5.88
2023-03-05T12:28:31.941Z,5.92
2023-03-05T12:31:53.187Z,5.97
2023-03-05T12:34:40.480Z,6.02
2023-03-05T12:37:22.335Z,6.05
2023-03-05T12:40:08.965Z,6.10
2023-03-05T12:42:46.483Z,6.19
2023-03-05T12:45:16.332Z,6.21
2023-03-05T12:48:12.173Z,6.27
2023-03-05T12:50:40.754Z,6.28
2023-03-05T12:53:17.023Z,6.28
2023-03-05T12:55:51.259Z,6.27
2023-03-05T12:58:31.999Z,6.24
2023-03-05T13:01:38.146Z,6.22
2023-03-05T13:04:25.252Z,6.21
2023-03-05T13:07:14.245Z,6.12
2023-03-05T13:09:52.902Z,5.99
2023-03-05T13:12:22.194Z,5.91
2023-03-05T13:14:59.676Z,5.83
2023-03-05T13:17:35.374Z,5.78
2023-03-05T13:20:24.219Z,5.69
2023-03-05T13:23:23.815Z,5.67
2023-03-05T13:26:02.497Z,5.70
2023-03-05T13:28:32.780Z,5.74
2023-03-05T13:31:04.212Z,5.76
2023-03-05T13:33:35.555Z,5.72
2023-03-05T13:36:05.206Z,5.72
2023-03-05T13:38:39.199Z,5.72
2023-03-05T13:41:11.264Z,5.72
2023-03-05T13:43:45.502Z,5.68
2023-03-05T13:46:13.986Z,5.63
2023-03-05T13:48:42.650Z,5.61
2023-03-05T13:51:12.166Z,5.59
2023-03-05T13:53:40.548Z,5.55
2023-03-05T13:56:15.908Z,5.46
2023-03-05T13:58:49.714Z,5.34
2023-03-05T14:01:25.379Z,5.27
2023-03-05T14:03:59.275Z,5.23
2023-03-05T14:06:31.128Z,5.12
2023-03-05T14:09:09.198Z,5.01
2023-03-05T14:11:37.413Z,4.97
2023-03-05T14:14:17.725Z,4.96
2023-03-05T14:16:57.563Z,4.96
2023-03-05T14:19:39.111Z,4.99
2023-03-05T14:22:37.459Z,5.00
2023-03-05T14:25:40.447Z,5.03
2023-03-05T14:28:17.623Z,5.05
2023-03-05T14:30:48.920Z,5.05
2023-03-05T14:33:27.082Z,5.06
2023-03-05T14:35:57.784Z,5.05
2023-03-05T14:38:31.941Z,5.02
2023-03-05T14:41:20.589Z,4.99
2023-03-05T14:43:49.301Z,4.98
2023-03-05T14:46:17.693Z,4.98
2023-03-05T14:48:47.173Z,4.92
2023-03-05T14:51:15.964Z,4.86
2023-03-05T14:53:51.208Z,4.84
2023-03-05T14:56:26.552Z,4.77
2023-03-05T14:58:57.662Z,4.69
2023-03-05T15:01:26.216Z,4.64
2023-03-05T15:03:54.774Z,4.60
2023-03-05T15:06:36.770Z,4.54
2023-03-05T15:09:06.523Z,4.47
2023-03-05T15:11:35.277Z,4.41
2023-03-05T15:14:04.349Z,4.37
2023-03-05T15:16:33.094Z,4.37
2023-03-05T15:19:03.606Z,4.37
2023-03-05T15:21:31.776Z,4.38
2023-03-05T15:24:00.095Z,4.38
2023-03-05T15:26:28.342Z,4.38
2023-03-05T15:31:26.198Z,4.34
2023-03-05T15:33:54.515Z,4.32
2023-03-05T15:36:23.208Z,4.31
2023-03-05T15:38:52.319Z,4.29
2023-03-05T15:41:22.540Z,4.27
2023-03-05T15:43:52.050Z,4.22
2023-03-05T15:46:20.568Z,4.20
2023-03-05T15:48:50.559Z,4.16
2023-03-05T15:51:20.380Z,4.11
2023-03-05T15:53:48.863Z,4.04
2023-03-05T15:56:18.965Z,3.96
2023-03-05T15:58:50.796Z,3.89
2023-03-05T16:01:20.383Z,3.87
2023-03-05T16:03:48.637Z,3.84
2023-03-05T16:06:22.558Z,3.79
2023-03-05T16:08:54.719Z,3.76
2023-03-05T16:11:23.521Z,3.75
2023-03-05T16:13:52.211Z,3.76
2023-03-05T16:16:23.717Z,3.76
2023-03-05T16:18:53.873Z,3.77
2023-03-05T16:21:22.274Z,3.75
2023-03-05T16:23:50.873Z,3.74
2023-03-05T16:26:19.657Z,3.70
2023-03-05T16:28:58.897Z,3.67
2023-03-05T16:31:44.782Z,3.66
2023-03-05T16:34:19.594Z,3.66
2023-03-05T16:36:53.108Z,3.68
2023-03-05T16:39:22.186Z,3.65
2023-03-05T16:41:50.908Z,3.61
2023-03-05T16:44:20.075Z,3.56
2023-03-05T16:46:53.457Z,3.48
2023-03-05T16:49:22.808Z,3.42
2023-03-05T16:51:51.206Z,3.38
2023-03-05T16:54:19.473Z,3.37
2023-03-05T16:56:47.862Z,3.38
2023-03-05T16:59:16.246Z,3.41
2023-03-05T17:01:45.040Z,3.43
2023-03-05T17:04:13.657Z,3.42
2023-03-05T17:06:46.789Z,3.40
2023-03-05T17:09:15.542Z,3.43
2023-03-05T17:11:44.002Z,3.45
2023-03-05T17:14:12.486Z,3.48
2023-03-05T17:16:40.832Z,3.50
2023-03-05T17:19:09.302Z,3.50
2023-03-05T17:21:37.841Z,3.49
2023-03-05T17:24:06.743Z,3.48
2023-03-05T17:26:38.320Z,3.47
2023-03-05T17:29:07.462Z,3.47
2023-03-05T17:31:35.791Z,3.50
2023-03-05T17:34:04.403Z,3.50
2023-03-05T17:36:32.868Z,3.51
2023-03-05T17:39:01.760Z,3.50
2023-03-05T17:41:30.241Z,3.50
2023-03-05T17:43:58.933Z,3.49
2023-03-05T17:46:27.925Z,3.47
2023-03-05T17:48:56.317Z,3.44
2023-03-05T17:51:28.173Z,3.40
2023-03-05T17:53:56.560Z,3.38
2023-03-05T17:56:27.930Z,3.38
2023-03-05T17:58:56.898Z,3.38
2023-03-05T18:01:28.829Z,3.37
2023-03-05T18:03:57.811Z,3.36
2023-03-05T18:06:26.272Z,3.35
2023-03-05T18:08:54.751Z,3.34
2023-03-05T18:11:23.567Z,3.33
2023-03-05T18:13:52.028Z,3.34
2023-03-05T18:16:21.588Z,3.35
2023-03-05T18:18:49.937Z,3.36
2023-03-05T18:21:23.835Z,3.35
2023-03-05T18:23:52.330Z,3.35
2023-03-05T18:26:20.533Z,3.35
2023-03-05T18:28:48.879Z,3.35
2023-03-05T18:31:19.025Z,3.36
2023-03-05T18:33:47.303Z,3.37
2023-03-05T18:36:15.570Z,3.37
2023-03-05T18:38:44.893Z,3.36
2023-03-05T18:41:20.657Z,3.34
2023-03-05T18:43:49.180Z,3.34
2023-03-05T18:46:18.397Z,3.35
2023-03-05T18:48:48.196Z,3.34
2023-03-05T18:51:19.854Z,3.35
2023-03-05T18:53:48.499Z,3.34
2023-03-05T18:56:17.390Z,3.33
2023-03-05T18:58:46.660Z,3.32
2023-03-05T19:01:17.723Z,3.31
2023-03-05T19:03:47.146Z,3.29
2023-03-05T19:06:17.903Z,3.29
2023-03-05T19:08:46.871Z,3.28
2023-03-05T19:11:17.862Z,3.25
2023-03-05T19:13:57.158Z,3.23
2023-03-05T19:16:29.530Z,3.23
2023-03-05T19:19:16.682Z,3.24
2023-03-05T19:21:50.642Z,3.25
2023-03-05T19:24:18.839Z,3.25
2023-03-05T19:26:48.088Z,3.24
2023-03-05T19:29:16.624Z,3.24
2023-03-05T19:31:45.117Z,3.21
2023-03-05T19:34:14.109Z,3.20
2023-03-05T19:36:42.428Z,3.17
2023-03-05T19:39:10.875Z,3.18
2023-03-05T19:41:40.391Z,3.19
2023-03-05T19:44:08.771Z,3.18
2023-03-05T19:46:37.333Z,3.17
2023-03-05T19:49:06.059Z,3.16
2023-03-05T19:51:35.046Z,3.15
2023-03-05T19:54:04.660Z,3.10
2023-03-05T19:56:33.460Z,3.06
2023-03-05T19:59:02.046Z,3.03
2023-03-05T20:01:30.480Z,3.02
2023-03-05T20:04:01.063Z,3.00
2023-03-05T20:06:31.697Z,2.98
2023-03-05T20:09:00.356Z,2.96
2023-03-05T20:11:29.056Z,2.95
2023-03-05T20:13:57.977Z,2.92
2023-03-05T20:16:32.023Z,2.91
2023-03-05T20:19:06.733Z,2.91
2023-03-05T20:21:50.266Z,2.91
2023-03-05T20:24:44.980Z,2.90
2023-03-05T20:27:15.166Z,2.90
2023-03-05T20:29:43.468Z,2.89
2023-03-05T20:32:11.976Z,2.90
2023-03-05T20:34:40.523Z,2.86
2023-03-05T20:37:09.740Z,2.85
2023-03-05T20:39:38.413Z,2.85
2023-03-05T20:42:07.792Z,2.85
2023-03-05T20:44:37.137Z,2.83
2023-03-05T20:47:41.707Z,2.79
2023-03-05T20:50:11.680Z,2.72
2023-03-05T20:52:40.942Z,2.72
2023-03-05T20:55:11.965Z,2.74
2023-03-05T20:57:42.036Z,2.77
2023-03-05T21:00:11.544Z,2.80
2023-03-05T21:02:40.187Z,2.81
2023-03-05T21:05:09.274Z,2.81
2023-03-05T21:07:37.516Z,2.80
2023-03-05T21:10:06.989Z,2.78
2023-03-05T21:12:35.616Z,2.75
2023-03-05T21:15:04.861Z,2.72
2023-03-05T21:17:33.309Z,2.70
2023-03-05T21:20:02.009Z,2.70
2023-03-05T21:22:30.285Z,2.70
2023-03-05T21:25:23.435Z,2.71
2023-03-05T21:27:59.497Z,2.71
2023-03-05T21:30:43.695Z,2.70
2023-03-05T21:33:13.593Z,2.69
2023-03-05T21:35:43.128Z,2.68
2023-03-05T21:38:12.176Z,2.69
2023-03-05T21:40:45.702Z,2.69
2023-03-05T21:43:17.869Z,2.69
2023-03-05T21:45:47.745Z,2.69
2023-03-05T21:48:16.864Z,2.68
2023-03-05T21:50:46.887Z,2.67
2023-03-05T21:53:16.910Z,2.68
2023-03-05T21:56:18.037Z,2.69
2023-03-05T21:58:52.977Z,2.68
2023-03-05T22:01:22.009Z,2.66
2023-03-05T22:03:50.605Z,2.66
2023-03-05T22:06:19.962Z,2.66
2023-03-05T22:08:48.692Z,2.65
2023-03-05T22:11:19.354Z,2.64
2023-03-05T22:13:47.967Z,2.64
2023-03-05T22:16:27.649Z,2.63
2023-03-05T22:18:55.900Z,2.63
2023-03-05T22:21:28.760Z,2.63
2023-03-05T22:23:58.509Z,2.63
2023-03-05T22:26:35.551Z,2.62
2023-03-05T22:29:05.100Z,2.62
2023-03-05T22:31:33.470Z,2.62
2023-03-05T22:34:01.849Z,2.61
2023-03-05T22:36:30.441Z,2.60
2023-03-05T22:38:58.737Z,2.60
2023-03-05T22:41:27.520Z,2.58
2023-03-05T22:43:56.022Z,2.56
2023-03-05T22:46:26.393Z,2.54
2023-03-05T22:48:54.839Z,2.51
2023-03-05T22:51:23.720Z,2.50
2023-03-05T22:53:52.116Z,2.49
2023-03-05T22:56:21.643Z,2.46
2023-03-05T22:58:50.196Z,2.42
2023-03-05T23:01:24.409Z,2.42
2023-03-05T23:04:44.684Z,2.41
2023-03-05T23:07:13.128Z,2.39
2023-03-05T23:09:41.473Z,2.38
2023-03-05T23:12:12.637Z,2.37
2023-03-05T23:14:40.893Z,2.36
2023-03-05T23:17:09.181Z,2.32
2023-03-05T23:19:39.773Z,2.31
2023-03-05T23:22:10.393Z,2.29
2023-03-05T23:24:40.062Z,2.27
2023-03-05T23:27:10.970Z,2.27
2023-03-05T23:30:17.686Z,2.26
2023-03-05T23:32:53.305Z,2.25
2023-03-05T23:35:25.208Z,2.25
2023-03-05T23:37:56.117Z,2.25
2023-03-05T23:40:30.854Z,2.24
2023-03-05T23:42:59.736Z,2.23
2023-03-05T23:45:29.507Z,2.22
2023-03-05T23:47:58.250Z,2.22
2023-03-05T23:50:29.603Z,2.22
2023-03-05T23:52:59.524Z,2.21
2023-03-05T23:55:33.230Z,2.19
2023-03-05T23:58:02.909Z,2.20
